Cheraw, Mississippi
Current Conditions -  °F | °C
As of 2:53 PM on Thursday 23 Oct 2014 (Local Time) from KMCB Reporting Station
Clear Clear  
Wind Chill: 72°   Ceiling: Unl
Heat Index: 72°   Visibility: 10mi
Dew Point: 42°   Wind: 6mph
Humidity: 34%   Direction: 40°NE
Pressure: 30.07"   Gusts: NA
Location:  31.274°N, 89.9542°W
Report Text: KMCB 231953Z AUTO 04005KT 10SM CLR 22/06 A3007 RMK AO2 SLP179 T02220056
Loading
Personal Weather Stations






























Interactive Weather Map
Tropical Storm Tracking
New forecast layout! Learn more

10-Day Weather Forecast

Advertisements
Track Severe Weather on mobile